Time;durP1;ratioP1;P1;durP2;ratioP2;P2;SDS_P1;SDS_P2;PMS_P1;PMS_P2;Temp;Humidity;BMP_temperature;BMP_pressure;BME280_temperature;BME280_humidity;BME280_pressure;Samples;Min_cycle;Max_cycle;Signal;HPM_P1;HPM_P2
2021/07/14 00:02:07;;;;;;;66.13;37.53;;;19.60;99.90;;;;;;5083957;28;20038;-71
2021/07/14 00:04:35;;;;;;;63.33;35.67;;;19.50;99.90;;;;;;5080007;28;20036;-71
2021/07/14 00:07:03;;;;;;;52.45;33.00;;;19.60;99.90;;;;;;5084821;28;20032;-71
2021/07/14 00:09:29;;;;;;;63.35;36.80;;;19.60;99.90;;;;;;5084044;28;20181;-71
2021/07/14 00:11:59;;;;;;;59.30;35.00;;;19.50;99.90;;;;;;5083312;28;20486;-72
2021/07/14 00:22:35;;;;;;;64.10;35.75;;;19.50;99.90;;;;;;5079071;28;20537;-71
2021/07/14 00:25:02;;;;;;;54.40;32.28;;;19.60;99.90;;;;;;5080680;28;20124;-72
2021/07/14 00:27:28;;;;;;;64.35;34.25;;;19.50;99.90;;;;;;5081884;28;20058;-71
2021/07/14 00:29:55;;;;;;;58.03;34.10;;;19.50;99.90;;;;;;5081029;28;20044;-71
2021/07/14 00:32:25;;;;;;;60.70;33.08;;;19.50;99.90;;;;;;5080023;28;20082;-71
2021/07/14 00:34:53;;;;;;;63.63;35.50;;;19.50;99.90;;;;;;5081665;28;20145;-71
2021/07/14 00:37:18;;;;;;;63.78;34.70;;;19.50;99.90;;;;;;5081053;28;20036;-71
2021/07/14 00:39:46;;;;;;;55.25;32.63;;;19.50;99.90;;;;;;5082167;28;20097;-71
2021/07/14 00:42:13;;;;;;;56.92;33.13;;;19.50;99.90;;;;;;5082893;28;20040;-71
2021/07/14 00:44:39;;;;;;;53.45;32.05;;;19.50;99.90;;;;;;5078290;28;20103;-71
2021/07/14 00:47:06;;;;;;;52.13;33.17;;;19.50;99.90;;;;;;5082075;28;20070;-71
2021/07/14 00:49:33;;;;;;;56.15;33.45;;;19.40;99.90;;;;;;5077384;28;20070;-71
2021/07/14 00:51:59;;;;;;;49.20;31.55;;;19.40;99.90;;;;;;5080533;28;20043;-71
2021/07/14 00:54:25;;;;;;;48.15;31.08;;;19.40;99.90;;;;;;5080034;28;20073;-71
2021/07/14 00:56:51;;;;;;;49.45;32.15;;;19.40;99.90;;;;;;5081298;28;20136;-71
2021/07/14 00:59:17;;;;;;;62.55;35.15;;;19.40;99.90;;;;;;5081339;28;20058;-71
2021/07/14 01:01:50;;;;;;;50.65;32.83;;;19.30;99.90;;;;;;5083261;28;20069;-71
2021/07/14 01:04:30;;;;;;;51.53;32.15;;;19.40;99.90;;;;;;5078046;28;20028;-71
2021/07/14 01:07:08;;;;;;;45.80;30.80;;;19.50;99.90;;;;;;5079622;28;20028;-70
2021/07/14 01:09:40;;;;;;;50.88;32.95;;;19.40;99.90;;;;;;5081422;28;20402;-71
2021/07/14 01:12:12;;;;;;;52.40;32.00;;;19.30;99.90;;;;;;5082392;28;20865;-71
2021/07/14 01:14:45;;;;;;;46.97;30.67;;;19.30;99.90;;;;;;5080763;28;20036;-70
2021/07/14 01:17:15;;;;;;;56.15;34.67;;;19.30;99.90;;;;;;5081010;28;20044;-71
2021/07/14 01:20:05;;;;;;;42.83;29.92;;;19.30;99.90;;;;;;5082849;28;20044;-71
2021/07/14 01:22:51;;;;;;;40.53;28.08;;;19.30;99.90;;;;;;5078264;28;20044;-71
2021/07/14 01:25:53;;;;;;;47.60;28.98;;;19.30;99.90;;;;;;5078849;28;20028;-70
2021/07/14 01:28:28;;;;;;;47.03;30.95;;;19.30;99.90;;;;;;5080756;28;20048;-71
2021/07/14 01:30:55;;;;;;;41.88;29.50;;;19.30;99.90;;;;;;5080255;28;20039;-71
2021/07/14 01:33:26;;;;;;;46.03;30.92;;;19.30;99.90;;;;;;5078111;28;20039;-71
2021/07/14 01:35:55;;;;;;;50.10;30.52;;;19.30;99.90;;;;;;5064078;28;20050;-71
2021/07/14 01:38:25;;;;;;;47.00;31.50;;;19.20;99.90;;;;;;5082487;28;20032;-71
2021/07/14 01:40:54;;;;;;;59.58;33.88;;;19.20;99.90;;;;;;5077644;28;20047;-71
2021/07/14 01:43:21;;;;;;;48.22;31.80;;;19.20;99.90;;;;;;5079014;28;20168;-71
2021/07/14 01:45:50;;;;;;;42.83;30.38;;;19.20;99.90;;;;;;5080274;28;20347;-71
2021/07/14 01:48:17;;;;;;;46.55;30.98;;;19.20;99.90;;;;;;5061150;28;20039;-71
2021/07/14 01:50:47;;;;;;;60.97;35.53;;;19.20;99.90;;;;;;5082921;28;20127;-70
2021/07/14 01:53:13;;;;;;;47.05;30.40;;;19.10;99.90;;;;;;5078877;28;20481;-71
2021/07/14 01:55:40;;;;;;;65.97;35.95;;;19.20;99.90;;;;;;5080616;28;20799;-70
2021/07/14 01:58:07;;;;;;;57.78;33.28;;;19.10;99.90;;;;;;5082017;28;20036;-70
2021/07/14 02:00:34;;;;;;;51.83;35.30;;;19.10;99.90;;;;;;5079142;28;20040;-71
2021/07/14 02:03:16;;;;;;;49.88;32.40;;;19.10;99.90;;;;;;5076522;28;20075;-71
2021/07/14 02:05:45;;;;;;;51.20;33.80;;;19.10;99.90;;;;;;5081005;28;20040;-71
2021/07/14 02:08:12;;;;;;;49.15;33.42;;;19.10;99.90;;;;;;5080859;28;20097;-71
2021/07/14 02:10:39;;;;;;;57.88;35.78;;;19.00;99.90;;;;;;5084664;28;20040;-71
2021/07/14 02:13:06;;;;;;;57.15;34.53;;;19.10;99.90;;;;;;5078209;28;20047;-71
2021/07/14 02:15:34;;;;;;;56.17;36.70;;;19.10;99.90;;;;;;5084580;28;20411;-71
2021/07/14 02:18:08;;;;;;;65.55;39.00;;;19.10;99.90;;;;;;5082511;28;20063;-71
2021/07/14 02:20:35;;;;;;;70.47;39.55;;;19.10;99.90;;;;;;5083151;28;20044;-71
2021/07/14 02:23:03;;;;;;;69.82;38.25;;;19.10;99.90;;;;;;5077607;28;20414;-71
2021/07/14 02:25:29;;;;;;;71.22;39.75;;;19.10;99.90;;;;;;5066838;28;20051;-71
2021/07/14 02:27:55;;;;;;;65.35;37.92;;;19.00;99.90;;;;;;5085503;28;20645;-71
2021/07/14 02:30:23;;;;;;;58.05;37.75;;;19.00;99.90;;;;;;5082441;28;20043;-71
2021/07/14 02:32:58;;;;;;;61.47;39.30;;;19.10;99.90;;;;;;5079689;28;20051;-71
2021/07/14 02:35:25;;;;;;;72.60;41.90;;;19.00;99.90;;;;;;5082551;28;20085;-71
2021/07/14 02:38:28;;;;;;;71.38;40.95;;;19.00;99.90;;;;;;5082288;28;20047;-71
2021/07/14 02:41:01;;;;;;;70.22;40.25;;;19.00;99.90;;;;;;5081291;28;20032;-71
2021/07/14 02:43:28;;;;;;;66.90;39.35;;;19.00;99.90;;;;;;5078883;28;20044;-71
2021/07/14 02:45:59;;;;;;;64.65;38.38;;;19.00;99.90;;;;;;5079543;28;20033;-71
2021/07/14 02:48:27;;;;;;;73.15;40.25;;;19.00;99.90;;;;;;5083060;28;20043;-71
2021/07/14 02:50:54;;;;;;;52.83;34.35;;;18.90;99.90;;;;;;5080347;28;20089;-71
2021/07/14 02:53:24;;;;;;;57.92;35.75;;;18.90;99.90;;;;;;5080140;28;20424;-71
2021/07/14 02:55:58;;;;;;;49.13;33.75;;;18.90;99.90;;;;;;5078689;28;20092;-71
2021/07/14 02:58:26;;;;;;;51.20;32.88;;;18.90;99.90;;;;;;5082579;28;20474;-71
2021/07/14 03:00:53;;;;;;;56.13;34.63;;;18.90;99.90;;;;;;5079642;28;20028;-71
2021/07/14 03:03:22;;;;;;;52.03;30.92;;;18.90;99.90;;;;;;5080529;28;20049;-71
2021/07/14 03:05:51;;;;;;;49.67;33.05;;;18.90;99.90;;;;;;5084946;28;20537;-71
2021/07/14 03:08:17;;;;;;;59.72;36.42;;;18.90;99.90;;;;;;5087128;28;20469;-72
2021/07/14 03:10:43;;;;;;;63.67;37.65;;;18.90;99.90;;;;;;5087601;28;20054;-71
2021/07/14 03:13:09;;;;;;;55.03;34.75;;;18.90;99.90;;;;;;5081582;28;20040;-71
2021/07/14 03:15:39;;;;;;;52.47;33.78;;;18.90;99.90;;;;;;5085625;28;20094;-71
2021/07/14 03:18:09;;;;;;;57.63;35.03;;;18.90;99.90;;;;;;5087278;28;20116;-71
2021/07/14 03:20:35;;;;;;;56.03;35.58;;;18.90;99.90;;;;;;5085340;28;20125;-71
2021/07/14 03:23:02;;;;;;;57.53;35.47;;;18.80;99.90;;;;;;5083936;28;20040;-71
2021/07/14 03:25:28;;;;;;;61.88;35.85;;;18.90;99.90;;;;;;5082794;28;20036;-71
2021/07/14 03:27:55;;;;;;;59.20;34.72;;;18.90;99.90;;;;;;5087785;28;20119;-71
2021/07/14 03:30:23;;;;;;;64.05;34.90;;;18.90;99.90;;;;;;5087053;28;20051;-71
2021/07/14 03:32:49;;;;;;;48.05;33.33;;;18.80;99.90;;;;;;5080427;28;20054;-71
2021/07/14 03:35:16;;;;;;;48.85;34.53;;;18.90;99.90;;;;;;5085792;28;20477;-70
2021/07/14 03:37:43;;;;;;;44.28;30.77;;;18.80;99.90;;;;;;5084178;28;20554;-71
2021/07/14 03:40:10;;;;;;;46.17;30.88;;;18.90;99.90;;;;;;5086631;28;20489;-71
2021/07/14 03:42:39;;;;;;;48.00;33.75;;;18.80;99.90;;;;;;5082221;28;20044;-71
2021/07/14 03:45:08;;;;;;;49.03;36.33;;;18.80;99.90;;;;;;5083549;28;20068;-71
2021/07/14 03:47:35;;;;;;;66.68;39.78;;;18.80;99.90;;;;;;5087591;28;20024;-71
2021/07/14 03:50:04;;;;;;;56.05;38.80;;;18.80;99.90;;;;;;5084801;28;20036;-71
2021/07/14 03:52:30;;;;;;;57.28;38.95;;;18.80;99.90;;;;;;5082806;28;20040;-71
2021/07/14 03:54:57;;;;;;;57.42;39.97;;;18.80;99.90;;;;;;5085960;28;20112;-71
2021/07/14 03:57:23;;;;;;;59.58;40.13;;;18.80;99.90;;;;;;5085408;28;20044;-71
2021/07/14 03:59:50;;;;;;;57.50;41.10;;;18.90;99.90;;;;;;5085702;28;20097;-71
2021/07/14 04:02:16;;;;;;;65.80;42.33;;;18.80;99.90;;;;;;5082383;28;20044;-71
2021/07/14 04:04:45;;;;;;;65.72;42.97;;;18.90;99.90;;;;;;5084313;28;20043;-71
2021/07/14 04:07:19;;;;;;;58.13;42.22;;;18.80;99.90;;;;;;5087594;28;20067;-71
2021/07/14 04:09:46;;;;;;;60.38;42.63;;;18.80;99.90;;;;;;5084276;28;20040;-71
2021/07/14 04:12:13;;;;;;;73.80;43.35;;;18.90;99.90;;;;;;5066356;28;20055;-71
2021/07/14 04:14:39;;;;;;;48.55;36.50;;;18.80;99.90;;;;;;5083176;28;20078;-71
2021/07/14 04:17:05;;;;;;;51.05;36.88;;;18.80;99.90;;;;;;5085289;28;20039;-71
2021/07/14 04:19:32;;;;;;;54.65;36.80;;;18.90;99.90;;;;;;5070098;28;20040;-71
2021/07/14 04:21:58;;;;;;;58.35;38.33;;;18.80;99.90;;;;;;5086553;28;20051;-71
2021/07/14 04:24:23;;;;;;;60.85;39.35;;;18.80;99.90;;;;;;5083103;28;20482;-71
2021/07/14 04:26:50;;;;;;;61.67;40.67;;;18.90;99.90;;;;;;5083070;28;20111;-72
2021/07/14 04:29:16;;;;;;;59.05;38.50;;;18.90;99.90;;;;;;5083462;28;20040;-71
2021/07/14 04:31:43;;;;;;;55.78;37.53;;;18.90;99.90;;;;;;5085212;28;20117;-71
2021/07/14 04:34:10;;;;;;;55.13;35.40;;;18.90;99.90;;;;;;5092579;28;20050;-71
2021/07/14 04:36:37;;;;;;;52.13;34.00;;;18.90;99.90;;;;;;5084532;28;20032;-71
2021/07/14 04:39:07;;;;;;;53.22;35.00;;;18.90;99.90;;;;;;5084698;28;20040;-71
2021/07/14 04:41:34;;;;;;;52.28;36.00;;;18.90;99.90;;;;;;5086102;28;20032;-70
2021/07/14 04:44:02;;;;;;;56.55;36.45;;;18.90;99.90;;;;;;5082588;28;20068;-71
2021/07/14 04:46:28;;;;;;;53.85;36.85;;;18.90;99.90;;;;;;5086160;28;20036;-71
2021/07/14 04:48:54;;;;;;;57.95;37.50;;;18.90;99.90;;;;;;5086331;28;20040;-66
2021/07/14 04:51:20;;;;;;;48.83;34.45;;;18.90;99.90;;;;;;5078546;28;20051;-66
2021/07/14 04:53:46;;;;;;;58.90;35.30;;;19.00;99.90;;;;;;5073171;28;20081;-70
2021/07/14 04:56:13;;;;;;;50.97;35.15;;;18.90;99.90;;;;;;5075906;28;20507;-70
2021/07/14 04:58:39;;;;;;;52.40;33.80;;;18.90;99.90;;;;;;5076088;28;20040;-70
2021/07/14 05:01:05;;;;;;;50.85;34.72;;;18.90;99.90;;;;;;5077672;28;20043;-70
2021/07/14 05:03:30;;;;;;;48.05;33.85;;;18.90;99.90;;;;;;5077789;28;20908;-70
2021/07/14 05:05:56;;;;;;;64.55;34.47;;;18.90;99.90;;;;;;5082711;28;20080;-70
2021/07/14 05:08:22;;;;;;;54.92;34.92;;;19.00;99.90;;;;;;5082039;28;20036;-70
2021/07/14 05:10:48;;;;;;;59.65;33.67;;;18.90;99.90;;;;;;5081602;28;20067;-70
2021/07/14 05:13:16;;;;;;;53.25;34.28;;;19.00;99.90;;;;;;5075717;28;21789;-70
2021/07/14 05:15:44;;;;;;;53.97;32.97;;;18.90;99.90;;;;;;5079825;28;20028;-70
2021/07/14 05:18:13;;;;;;;57.28;33.92;;;18.90;99.90;;;;;;5059522;28;21483;-70
2021/07/14 05:20:41;;;;;;;49.70;33.47;;;19.00;99.90;;;;;;5079014;28;20498;-70
2021/07/14 05:23:08;;;;;;;58.97;35.47;;;19.00;99.90;;;;;;5077267;28;20051;-70
2021/07/14 05:25:35;;;;;;;48.50;33.28;;;18.90;99.90;;;;;;5077842;28;20157;-71
2021/07/14 05:28:01;;;;;;;54.97;35.78;;;19.00;99.90;;;;;;5078758;28;20054;-70
2021/07/14 05:30:27;;;;;;;56.50;35.63;;;19.00;99.90;;;;;;5078435;28;20467;-70
2021/07/14 05:32:53;;;;;;;53.30;35.55;;;19.00;99.90;;;;;;5056584;28;20032;-70
2021/07/14 05:35:19;;;;;;;47.85;32.83;;;19.00;99.90;;;;;;5078995;28;20040;-70
2021/07/14 05:37:44;;;;;;;56.92;34.88;;;19.00;99.90;;;;;;5079588;28;20083;-70
2021/07/14 05:40:11;;;;;;;58.35;36.40;;;19.00;99.90;;;;;;5076251;28;20044;-70
2021/07/14 05:42:36;;;;;;;49.20;34.22;;;19.00;99.90;;;;;;5074207;28;20043;-70
2021/07/14 05:45:03;;;;;;;62.90;37.25;;;19.00;99.90;;;;;;5076269;28;20051;-70
2021/07/14 05:47:29;;;;;;;49.92;34.00;;;19.00;99.90;;;;;;5072911;28;20132;-70
2021/07/14 05:49:54;;;;;;;52.03;36.03;;;19.00;99.90;;;;;;5070728;28;20044;-70
2021/07/14 05:52:20;;;;;;;53.72;34.65;;;19.00;99.90;;;;;;5071673;28;20078;-70
2021/07/14 05:54:46;;;;;;;50.60;34.13;;;19.10;99.90;;;;;;5074427;28;20074;-71
2021/07/14 05:57:12;;;;;;;53.20;32.95;;;19.10;99.90;;;;;;5071758;28;20048;-71
2021/07/14 05:59:37;;;;;;;48.97;34.17;;;19.10;99.90;;;;;;5074446;28;20051;-71
2021/07/14 06:02:03;;;;;;;48.75;33.10;;;19.10;99.90;;;;;;5074737;28;20032;-70
2021/07/14 06:04:29;;;;;;;48.92;30.73;;;19.20;99.90;;;;;;5071544;28;20043;-70
2021/07/14 06:06:56;;;;;;;38.60;30.73;;;19.20;99.90;;;;;;5089265;28;20044;-71
2021/07/14 06:09:23;;;;;;;41.15;30.27;;;19.30;99.90;;;;;;5074518;28;20036;-70
2021/07/14 06:11:49;;;;;;;42.63;29.20;;;19.30;99.90;;;;;;5073666;28;20036;-70
2021/07/14 06:14:15;;;;;;;42.58;27.63;;;19.30;99.90;;;;;;5069751;28;20047;-70
2021/07/14 06:16:41;;;;;;;39.70;26.08;;;19.30;99.90;;;;;;5071524;28;20148;-70
2021/07/14 06:19:07;;;;;;;31.27;26.05;;;19.40;99.90;;;;;;5070345;28;20379;-70
2021/07/14 06:21:33;;;;;;;33.42;25.48;;;19.40;99.90;;;;;;5072877;28;20161;-70
2021/07/14 06:23:59;;;;;;;35.88;25.25;;;19.40;99.90;;;;;;5070922;28;20061;-70
2021/07/14 06:26:24;;;;;;;36.83;24.60;;;19.40;99.90;;;;;;5075275;28;20039;-70
2021/07/14 06:28:50;;;;;;;27.38;23.42;;;19.40;99.90;;;;;;5073480;28;20127;-70
2021/07/14 06:31:16;;;;;;;29.60;22.75;;;19.50;99.90;;;;;;5073796;28;20044;-70
2021/07/14 06:33:42;;;;;;;24.95;21.73;;;19.50;99.90;;;;;;5070840;28;20043;-70
2021/07/14 06:36:08;;;;;;;24.20;21.55;;;19.50;99.90;;;;;;5073654;28;20051;-70
2021/07/14 06:38:35;;;;;;;25.10;20.50;;;19.60;99.90;;;;;;5079479;28;20039;-70
2021/07/14 06:41:01;;;;;;;30.58;21.00;;;19.60;99.90;;;;;;5080591;28;20036;-70
2021/07/14 06:43:45;;;;;;;26.02;19.60;;;19.70;99.90;;;;;;5077291;28;20395;-70
2021/07/14 06:46:15;;;;;;;28.35;20.33;;;19.70;99.90;;;;;;5077658;28;20036;-70
2021/07/14 06:48:41;;;;;;;24.25;19.48;;;19.80;99.90;;;;;;5078355;28;20036;-70
2021/07/14 06:51:08;;;;;;;21.38;19.00;;;19.90;99.90;;;;;;5077473;28;20044;-70
2021/07/14 06:53:34;;;;;;;28.65;19.95;;;20.00;99.90;;;;;;5077409;28;20047;-70
2021/07/14 06:56:01;;;;;;;21.80;17.42;;;20.20;99.90;;;;;;5076828;28;20044;-70
2021/07/14 06:58:27;;;;;;;22.92;18.33;;;20.20;99.90;;;;;;5075812;28;20039;-70
2021/07/14 07:00:54;;;;;;;23.40;18.38;;;20.30;99.90;;;;;;5077602;28;20028;-70
2021/07/14 07:03:20;;;;;;;17.45;15.40;;;20.50;99.90;;;;;;5077105;28;20048;-70
2021/07/14 07:05:47;;;;;;;19.73;15.10;;;20.60;99.90;;;;;;5059145;28;20051;-70
2021/07/14 07:08:12;;;;;;;20.60;15.93;;;20.70;99.90;;;;;;5076531;28;20084;-70
2021/07/14 07:10:40;;;;;;;23.08;15.65;;;20.80;99.90;;;;;;5077612;28;20048;-70
2021/07/14 07:13:10;;;;;;;20.83;16.35;;;20.80;99.90;;;;;;5074357;28;20442;-70
2021/07/14 07:15:36;;;;;;;16.05;14.35;;;20.90;99.90;;;;;;5075033;28;21045;-70
2021/07/14 07:18:02;;;;;;;16.27;13.98;;;21.00;99.90;;;;;;5078655;28;20054;-70
2021/07/14 07:20:31;;;;;;;14.80;13.02;;;21.00;99.90;;;;;;5089323;28;20058;-70
2021/07/14 07:22:58;;;;;;;16.77;14.02;;;21.10;99.90;;;;;;5076433;28;20040;-70
2021/07/14 07:25:26;;;;;;;15.18;13.63;;;21.10;99.90;;;;;;5077943;28;20048;-70
2021/07/14 07:27:53;;;;;;;14.65;13.10;;;21.20;99.90;;;;;;5077219;28;20032;-70
2021/07/14 07:30:18;;;;;;;15.10;12.65;;;21.20;99.90;;;;;;5073272;28;20048;-70
2021/07/14 07:32:44;;;;;;;15.95;12.98;;;21.30;99.90;;;;;;5074119;28;20140;-70
2021/07/14 07:35:11;;;;;;;19.05;13.18;;;21.30;99.90;;;;;;5078481;28;20477;-70
2021/07/14 07:37:38;;;;;;;15.20;13.20;;;21.40;99.90;;;;;;5079361;28;20036;-70
2021/07/14 07:40:06;;;;;;;15.40;13.38;;;21.50;99.90;;;;;;5078572;28;20050;-71
2021/07/14 07:42:31;;;;;;;17.48;12.60;;;21.50;99.90;;;;;;5075406;28;20870;-70
2021/07/14 07:44:57;;;;;;;16.65;12.52;;;21.50;99.90;;;;;;5077297;28;20120;-70
2021/07/14 07:47:24;;;;;;;14.18;12.65;;;21.60;99.90;;;;;;5074513;28;20048;-70
2021/07/14 07:49:49;;;;;;;19.35;12.60;;;21.60;99.90;;;;;;5075021;28;20036;-70
2021/07/14 07:52:18;;;;;;;14.38;11.95;;;21.60;99.90;;;;;;5073446;28;20536;-71
2021/07/14 07:54:44;;;;;;;14.18;12.65;;;21.70;99.90;;;;;;5073615;28;20409;-71
2021/07/14 07:57:11;;;;;;;18.15;12.70;;;21.70;99.90;;;;;;5076927;28;20039;-71
2021/07/14 07:59:37;;;;;;;16.98;12.90;;;21.70;99.90;;;;;;5077298;28;20458;-71
2021/07/14 08:02:04;;;;;;;13.73;11.35;;;21.80;99.90;;;;;;5076299;28;20050;-71
2021/07/14 08:04:30;;;;;;;15.00;12.70;;;21.80;99.90;;;;;;5074682;28;20040;-71
2021/07/14 08:06:57;;;;;;;15.23;13.13;;;21.90;99.90;;;;;;5059986;28;20086;-71
2021/07/14 08:09:22;;;;;;;13.20;11.77;;;22.10;99.90;;;;;;5077222;28;20052;-71
2021/07/14 08:11:49;;;;;;;13.32;11.90;;;22.10;99.90;;;;;;5056964;28;20401;-70
2021/07/14 08:14:16;;;;;;;17.35;12.93;;;22.10;99.90;;;;;;5074062;28;20063;-69
2021/07/14 08:16:43;;;;;;;15.50;13.38;;;22.20;99.90;;;;;;5076046;28;20490;-71
2021/07/14 08:19:09;;;;;;;16.10;12.38;;;22.20;99.90;;;;;;5075928;28;20040;-71
2021/07/14 08:21:35;;;;;;;16.23;12.20;;;22.20;99.90;;;;;;5076713;28;20055;-70
2021/07/14 08:24:01;;;;;;;21.70;13.57;;;22.20;99.90;;;;;;5073773;28;20164;-71
2021/07/14 08:26:26;;;;;;;13.38;11.95;;;22.20;99.90;;;;;;5076369;28;20057;-71
2021/07/14 08:28:52;;;;;;;14.52;13.05;;;22.20;99.90;;;;;;5072634;28;20048;-71
2021/07/14 08:31:19;;;;;;;15.18;13.77;;;22.20;99.90;;;;;;5068243;28;20721;-71
2021/07/14 08:33:45;;;;;;;13.63;12.43;;;22.20;99.90;;;;;;5062275;28;20047;-71
2021/07/14 08:36:11;;;;;;;14.95;12.07;;;22.30;99.90;;;;;;5072047;28;20044;-71
2021/07/14 08:38:37;;;;;;;14.68;12.35;;;22.40;99.90;;;;;;5071870;28;20174;-71
2021/07/14 08:41:04;;;;;;;15.55;13.95;;;22.40;99.90;;;;;;5054240;28;20059;-71
2021/07/14 08:43:32;;;;;;;14.85;13.02;;;22.40;99.90;;;;;;5070305;28;20059;-71
2021/07/14 08:45:59;;;;;;;14.15;12.40;;;22.40;99.90;;;;;;5069627;28;20085;-71
2021/07/14 08:48:25;;;;;;;16.05;12.80;;;22.50;99.90;;;;;;5069727;28;20036;-71
2021/07/14 08:50:55;;;;;;;13.07;11.75;;;22.60;99.90;;;;;;5070939;28;20047;-71
2021/07/14 08:53:21;;;;;;;14.10;12.00;;;22.70;99.90;;;;;;5068495;28;20494;-71
2021/07/14 08:55:48;;;;;;;15.75;12.77;;;22.70;99.90;;;;;;5070053;28;20039;-71
2021/07/14 08:58:16;;;;;;;13.23;11.70;;;22.70;99.90;;;;;;5071178;28;20162;-71
2021/07/14 09:00:43;;;;;;;13.27;11.88;;;22.80;99.90;;;;;;5073637;28;20118;-69
2021/07/14 09:03:09;;;;;;;12.50;11.40;;;22.70;99.90;;;;;;5073830;28;20036;-69
2021/07/14 09:05:36;;;;;;;16.08;11.85;;;22.70;99.90;;;;;;5074031;28;20036;-69
2021/07/14 09:08:02;;;;;;;12.70;11.48;;;22.80;99.90;;;;;;5077592;28;20179;-69
2021/07/14 09:10:27;;;;;;;15.52;12.70;;;22.80;99.90;;;;;;5078873;28;20055;-69
2021/07/14 09:12:59;;;;;;;16.20;13.73;;;22.90;99.90;;;;;;5076449;28;20044;-69
2021/07/14 09:15:27;;;;;;;18.70;13.70;;;22.80;99.90;;;;;;5077268;28;20410;-69
2021/07/14 09:17:55;;;;;;;14.57;12.82;;;22.90;99.90;;;;;;5077368;28;20062;-69
2021/07/14 09:20:27;;;;;;;13.52;12.13;;;22.80;99.90;;;;;;5080921;28;20050;-70
2021/07/14 09:23:13;;;;;;;21.50;13.48;;;22.90;99.90;;;;;;5054371;28;20085;-69
2021/07/14 09:25:56;;;;;;;14.68;13.18;;;22.90;99.90;;;;;;5076150;28;20537;-69
2021/07/14 09:28:27;;;;;;;16.10;13.10;;;22.80;99.90;;;;;;5077987;28;20040;-69
2021/07/14 09:30:59;;;;;;;15.25;13.80;;;22.90;99.90;;;;;;5076996;28;20056;-69
2021/07/14 09:33:25;;;;;;;17.35;15.60;;;22.80;99.90;;;;;;5072612;28;20044;-69
2021/07/14 09:35:53;;;;;;;17.95;16.17;;;22.80;99.90;;;;;;5075912;28;20128;-69
2021/07/14 09:38:24;;;;;;;17.60;15.95;;;22.70;99.90;;;;;;5077383;28;20093;-69
2021/07/14 09:41:04;;;;;;;16.83;15.00;;;22.70;99.90;;;;;;5073517;28;20752;-69
2021/07/14 09:43:35;;;;;;;21.30;15.65;;;22.70;99.90;;;;;;5072044;28;20046;-69
2021/07/14 09:46:09;;;;;;;18.60;15.32;;;22.70;99.90;;;;;;5073498;28;20748;-71
2021/07/14 09:48:40;;;;;;;17.92;16.20;;;22.70;99.90;;;;;;5075255;28;20123;-71
2021/07/14 09:51:16;;;;;;;16.60;14.82;;;22.80;99.90;;;;;;5073789;28;20036;-70
2021/07/14 09:53:45;;;;;;;22.77;16.50;;;22.90;99.90;;;;;;5070064;28;20505;-71
2021/07/14 09:56:25;;;;;;;18.75;15.98;;;23.00;99.90;;;;;;5073228;28;20460;-71
2021/07/14 09:59:11;;;;;;;17.48;15.50;;;23.00;99.90;;;;;;5075074;28;20033;-71
2021/07/14 10:01:43;;;;;;;16.95;15.15;;;23.10;99.90;;;;;;5073640;28;20036;-71
2021/07/14 10:04:12;;;;;;;23.50;16.15;;;23.10;99.90;;;;;;5071901;28;20036;-71
2021/07/14 10:06:38;;;;;;;18.88;16.52;;;23.20;99.90;;;;;;5074330;28;20039;-71
2021/07/14 10:09:07;;;;;;;17.20;15.40;;;23.30;99.90;;;;;;5074034;28;20130;-71
2021/07/14 10:11:33;;;;;;;15.95;14.02;;;23.30;99.90;;;;;;5071864;28;20063;-71
2021/07/14 10:14:00;;;;;;;17.48;15.60;;;23.40;99.90;;;;;;5074688;28;20044;-71
2021/07/14 10:16:40;;;;;;;21.00;14.82;;;23.60;99.90;;;;;;5078972;28;20048;-71
2021/07/14 10:19:15;;;;;;;18.60;16.20;;;23.70;99.90;;;;;;5077789;28;20768;-71
2021/07/14 10:21:49;;;;;;;18.52;14.95;;;23.70;99.90;;;;;;5077650;28;21147;-71
2021/07/14 10:24:17;;;;;;;14.40;13.00;;;23.60;99.90;;;;;;5075928;28;20123;-71
2021/07/14 10:26:46;;;;;;;16.30;14.80;;;23.50;99.90;;;;;;5085080;28;20439;-71
2021/07/14 10:29:13;;;;;;;20.52;16.00;;;23.50;99.90;;;;;;5064835;28;20028;-71
2021/07/14 10:31:39;;;;;;;21.73;15.88;;;23.40;99.90;;;;;;5082922;28;20142;-71
2021/07/14 10:34:09;;;;;;;20.52;16.13;;;23.30;99.90;;;;;;5080962;28;20054;-71
2021/07/14 10:36:39;;;;;;;22.95;16.00;;;23.20;99.90;;;;;;5081090;28;20716;-71
2021/07/14 10:39:13;;;;;;;23.98;18.02;;;23.10;99.90;;;;;;5079472;28;20043;-71
2021/07/14 10:41:41;;;;;;;21.40;18.35;;;23.00;99.90;;;;;;5078366;28;20040;-71
2021/07/14 10:44:07;;;;;;;24.00;18.80;;;22.80;99.90;;;;;;5058682;28;20032;-71
2021/07/14 10:46:38;;;;;;;23.25;19.95;;;22.70;99.90;;;;;;5077466;28;20079;-71
2021/07/14 10:49:07;;;;;;;26.67;21.98;;;22.70;99.90;;;;;;5078238;28;20046;-71
2021/07/14 10:51:35;;;;;;;26.45;23.75;;;22.60;99.90;;;;;;5078233;28;20043;-68
2021/07/14 10:54:03;;;;;;;27.10;24.17;;;22.50;99.90;;;;;;5073083;28;20570;-68
2021/07/14 10:56:34;;;;;;;25.10;21.80;;;22.50;99.90;;;;;;5077818;28;20489;-68
2021/07/14 10:59:02;;;;;;;30.25;23.90;;;22.50;99.90;;;;;;5047419;28;20039;-68
2021/07/14 11:01:47;;;;;;;28.77;23.17;;;22.50;99.90;;;;;;5073112;28;20044;-68
2021/07/14 11:04:25;;;;;;;30.00;24.13;;;22.60;99.90;;;;;;5074439;28;20402;-68
2021/07/14 11:07:07;;;;;;;26.58;21.58;;;22.70;99.90;;;;;;5076620;28;20040;-72
2021/07/14 11:09:46;;;;;;;26.30;21.77;;;22.80;99.90;;;;;;5076846;28;20040;-72
2021/07/14 11:12:37;;;;;;;27.75;22.67;;;22.90;99.90;;;;;;5076813;28;20114;-74
2021/07/14 11:15:05;;;;;;;27.88;22.70;;;22.90;99.90;;;;;;5076630;28;20082;-71
2021/07/14 11:17:35;;;;;;;25.13;21.67;;;22.80;99.90;;;;;;5078672;28;20040;-71
2021/07/14 11:20:09;;;;;;;28.35;22.10;;;22.80;99.90;;;;;;5076152;28;20044;-71
2021/07/14 11:22:41;;;;;;;25.38;20.77;;;22.70;99.90;;;;;;5072059;28;20047;-71
2021/07/14 11:25:09;;;;;;;30.30;20.88;;;22.70;99.90;;;;;;5077475;28;20421;-72
2021/07/14 11:27:38;;;;;;;24.52;21.63;;;22.70;99.90;;;;;;5077586;28;20493;-71
2021/07/14 11:30:04;;;;;;;28.35;21.15;;;22.70;99.90;;;;;;5075680;28;20044;-71
2021/07/14 11:32:37;;;;;;;25.02;20.38;;;22.70;99.90;;;;;;5072783;28;20535;-73
2021/07/14 11:35:07;;;;;;;24.60;19.10;;;22.80;99.90;;;;;;5059825;28;20047;-74
2021/07/14 11:37:40;;;;;;;21.77;18.42;;;22.80;99.90;;;;;;5077414;28;20048;-74
2021/07/14 11:40:21;;;;;;;28.05;18.35;;;22.90;99.90;;;;;;5060408;28;20474;-74
2021/07/14 11:43:26;;;;;;;18.80;16.83;;;23.10;99.90;;;;;;5071870;28;20074;-69
2021/07/14 11:46:07;;;;;;;23.20;15.47;;;23.30;99.90;;;;;;5051358;28;20078;-69
2021/07/14 11:48:35;;;;;;;19.02;16.13;;;23.50;99.90;;;;;;5074631;28;20420;-69
2021/07/14 11:51:29;;;;;;;22.08;17.33;;;23.50;99.90;;;;;;5076086;28;20054;-68
2021/07/14 11:53:58;;;;;;;26.75;16.67;;;23.50;99.90;;;;;;5070866;28;20465;-68
2021/07/14 11:56:34;;;;;;;19.17;16.13;;;23.60;99.90;;;;;;5074643;28;20050;-68
2021/07/14 11:59:21;;;;;;;25.35;17.33;;;23.50;99.90;;;;;;5073085;28;20389;-69
2021/07/14 12:01:52;;;;;;;25.63;16.80;;;23.50;99.90;;;;;;5074093;28;20040;-68
2021/07/14 12:04:20;;;;;;;21.08;17.15;;;23.50;99.90;;;;;;5071384;28;20481;-68
2021/07/14 12:06:52;;;;;;;19.77;16.20;;;23.50;99.90;;;;;;5075963;28;21102;-67
2021/07/14 12:09:18;;;;;;;23.73;16.30;;;23.50;99.90;;;;;;5077204;28;20032;-67
2021/07/14 12:11:43;;;;;;;25.55;18.08;;;23.50;99.90;;;;;;5074257;28;20040;-66
2021/07/14 12:14:30;;;;;;;21.10;17.80;;;23.50;99.90;;;;;;5071617;28;20085;-66
2021/07/14 12:17:15;;;;;;;22.35;17.90;;;23.50;99.90;;;;;;5075310;28;20040;-66
2021/07/14 12:19:45;;;;;;;25.65;17.80;;;23.60;99.90;;;;;;5081221;28;20146;-67
2021/07/14 12:22:23;;;;;;;20.38;17.48;;;23.60;99.90;;;;;;5075375;28;20047;-66
2021/07/14 12:24:57;;;;;;;22.05;17.58;;;23.70;99.90;;;;;;5075503;28;20397;-67
2021/07/14 12:27:27;;;;;;;21.48;16.92;;;23.70;99.90;;;;;;5075235;28;20529;-66
2021/07/14 12:29:58;;;;;;;24.30;17.42;;;23.80;99.90;;;;;;5074240;28;20106;-67
2021/07/14 12:32:45;;;;;;;19.88;17.35;;;23.80;99.90;;;;;;5073567;28;20040;-67
2021/07/14 12:35:22;;;;;;;22.10;16.70;;;23.80;99.90;;;;;;5076644;28;20067;-66
2021/07/14 12:37:59;;;;;;;19.38;15.50;;;23.80;99.90;;;;;;5073579;28;20056;-66
2021/07/14 12:40:36;;;;;;;19.83;16.10;;;23.80;99.90;;;;;;5076324;28;20492;-67
2021/07/14 12:43:08;;;;;;;19.58;16.33;;;23.90;99.90;;;;;;5054489;28;20582;-67
2021/07/14 12:45:36;;;;;;;22.23;15.60;;;24.00;99.90;;;;;;5061746;28;20119;-67
2021/07/14 12:48:05;;;;;;;21.65;16.13;;;24.00;99.90;;;;;;5076754;28;20044;-67